Yacolt, Washington
Current Conditions -  °F | °C
As of 11:53 PM on Friday 19 Dec 2014 (Local Time) from KVUO Reporting Station
Light Rain Light Rain  
Wind Chill: 44°   Ceiling: 4700
Heat Index: 47°   Visibility: 10mi
Dew Point: 43°   Wind: 7mph
Humidity: 86%   Direction: 110°ESE
Pressure: 29.9"   Gusts: NA
Location:  45.87°N, 122.41°W
Report Text: KVUO 200753Z AUTO 11006KT 10SM -RA FEW025 BKN047 OVC055 08/06 A2990 RMK AO2 SLP125 P0002 T00830061 401170061
Loading
Personal Weather Stations






























Interactive Weather Map New forecast layout! Learn more

10-Day Weather Forecast

Advertisements
Track Severe Weather on mobile